Flight Track Log - Related Links

Times and Time Zones

All times are in EDT time to prevent confusion due to time zone crossing. See the SWA385 flight status page for this flight to view local times or setup timezone preferences in your user account.

Time Position Orientation Groundspeed Altitude Reporting Facility
EDT Latitude Longitude Course Direction KTS MPH feet Rate Location/Type
Thu 04:45:52 PM 38.9333 -77.5167 293° West 181 208 1,800  Level Potomac TRACON
Thu 04:47:48 PM 38.9036 -77.6856 257° West 288 331 6,100 2,844 Climbing Washington Center
Thu 04:48:45 PM 38.8894 -77.7706 258° West 283 326 10,000 3,254 Climbing Washington Center
Thu 04:49:46 PM 38.8747 -77.8953 261° West 303 349 12,500 2,634 Climbing Washington Center
Thu 04:50:48 PM 38.8972 -78.0161 283° West 331 381 15,400 3,000 Climbing Washington Center
Thu 04:51:00 PM 39.3485 -78.6903 293° West  Level Estimated
Thu 04:51:48 PM 38.9344 -78.1347 292° West 341 392 18,600  Level Washington Center
Thu 04:52:46 PM 38.9628 -78.2667 285° West 360 414 21,100 2,492 Climbing Washington Center
Thu 04:53:46 PM 38.9658 -78.4083 272° West 383 441 23,500 2,331 Climbing Washington Center
Thu 04:54:47 PM 38.9708 -78.5500 273° West 390 449 25,800 2,033 Climbing Washington Center
Thu 04:55:47 PM 38.9736 -78.6942 271° West 407 468 27,600 1,636 Climbing Washington Center
Thu 04:56:48 PM 38.9778 -78.8467 272° West 421 484 29,100 1,636 Climbing Washington Center
Thu 04:57:48 PM 38.9819 -78.9992 272° West 427 491 30,900 1,932 Climbing Washington Center
Thu 04:58:46 PM 38.9858 -79.1514 272° West 427 491 32,900 1,932 Climbing Washington Center
Thu 04:59:46 PM 38.9897 -79.3011 272° West 422 486 34,700 1,770 Climbing Washington Center
Thu 05:00:48 PM 38.9936 -79.4431 272° West 415 478 36,500 1,636 Climbing Washington Center
Thu 05:01:47 PM 38.9972 -79.5847 272° West 405 466 38,000 756 Climbing Washington Center
Thu 05:02:47 PM 39.0028 -79.7267 273° West 405 466 38,000  Level Washington Center
Thu 05:03:48 PM 39.0022 -79.8656 270° West 405 466 38,000  Level Washington Center
Thu 05:04:36 PM 39.0019 -79.9636 270° West 390 449 38,000  Level Indianapolis Center
Thu 05:05:38 PM 39.0044 -80.1081 271° West 392 451 38,000  Level Indianapolis Center
Thu 05:06:40 PM 39.0058 -80.2481 271° West 392 451 38,000  Level Indianapolis Center
Thu 05:07:42 PM 39.0147 -80.3881 275° West 396 456 38,000  Level Indianapolis Center
Thu 05:08:44 PM 39.0833 -80.5461 299° West 425 489 38,000  Level Indianapolis Center
Thu 05:09:47 PM 39.1389 -80.6783 298° West 422 486 38,000  Level Indianapolis Center
Thu 05:10:49 PM 39.1956 -80.8086 299° West 422 486 38,000  Level Indianapolis Center
Thu 05:11:51 PM 39.2533 -80.9381 300° West 419 482 38,000  Level Indianapolis Center
Thu 05:12:53 PM 39.3106 -81.0703 299° West 422 486 38,000  Level Indianapolis Center
Thu 05:13:55 PM 39.3669 -81.2011 299° West 420 483 38,000  Level Indianapolis Center
Thu 05:14:57 PM 39.4344 -81.3572 299° West 417 480 38,000  Level Indianapolis Center
Thu 05:15:59 PM 39.4906 -81.4894 299° West 419 482 38,000  Level Indianapolis Center
Thu 05:17:01 PM 39.5458 -81.6208 299° West 417 480 38,000  Level Indianapolis Center
Thu 05:18:03 PM 39.6019 -81.7531 299° West 419 482 38,000  Level Indianapolis Center
Thu 05:19:05 PM 39.6583 -81.8836 299° West 417 480 38,000  Level Indianapolis Center
Thu 05:20:07 PM 39.7236 -82.0397 299° West 420 483 38,000  Level Indianapolis Center
Thu 05:21:09 PM 39.7792 -82.1742 298° West 420 483 38,000  Level Indianapolis Center
Thu 05:22:12 PM 39.8356 -82.3092 299° West 420 483 38,000  Level Indianapolis Center
Thu 05:23:13 PM 39.8925 -82.4436 299° West 421 484 38,000  Level Indianapolis Center
Thu 05:24:15 PM 39.9481 -82.5772 299° West 418 481 38,000  Level Indianapolis Center
Thu 05:25:18 PM 40.0028 -82.7106 298° West 416 479 38,000  Level Indianapolis Center
Thu 05:26:20 PM 40.0664 -82.8681 298° West 418 481 38,000  Level Indianapolis Center
Thu 05:27:22 PM 40.1214 -83.0011 298° West 417 480 38,000  Level Indianapolis Center
Thu 05:28:24 PM 40.1758 -83.1347 298° West 416 479 38,000  Level Indianapolis Center
Thu 05:29:26 PM 40.2286 -83.2675 298° West 413 475 38,000  Level Indianapolis Center
Thu 05:30:28 PM 40.2819 -83.3997 298° West 411 473 38,000  Level Indianapolis Center
Thu 05:31:30 PM 40.3442 -83.5556 298° West 413 475 38,000  Level Indianapolis Center
Thu 05:32:32 PM 40.3975 -83.6886 298° West 412 474 38,000  Level Indianapolis Center
Thu 05:33:34 PM 40.4503 -83.8225 297° West 411 473 38,000  Level Indianapolis Center
Thu 05:34:36 PM 40.5042 -83.9572 298° West 413 475 38,000  Level Indianapolis Center
Thu 05:35:38 PM 40.5572 -84.0917 297° West 413 475 38,000 -919 Level Indianapolis Center
Thu 05:36:40 PM 40.6094 -84.2256 297° West 410 472 36,100 -2,129 Descending Indianapolis Center
Thu 05:37:42 PM 40.6608 -84.3586 297° West 407 468 33,600 -2,371 Descending Indianapolis Center
Thu 05:38:44 PM 40.7197 -84.5089 297° West 393 452 31,200 -1,742 Descending Indianapolis Center
Thu 05:39:46 PM 40.7678 -84.6342 298° West 381 438 30,000 -581 Descending Indianapolis Center
Thu 05:40:00 PM 40.7774 -84.6685 298° West  Level FlightAware Approximate
Thu 05:40:48 PM 40.8147 -84.7547 297° West 370 426 30,000  Level Indianapolis Center
Thu 05:41:51 PM 40.8783 -84.8619 308° West 376 433 29,000 -960 Descending Indianapolis Center
Thu 05:42:53 PM 40.9594 -84.9556 319° Northwest 370 426 28,000 -484 Descending Indianapolis Center
Thu 05:43:55 PM 41.0333 -85.0425 318° Northwest 360 414 28,000 -528 Level Indianapolis Center
Thu 05:44:58 PM 41.1128 -85.1339 319° Northwest 356 410 26,900 -1,008 Descending Chicago Center
Thu 05:46:00 PM 41.1792 -85.2331 312° West 362 417 25,900 -1,008 Descending Chicago Center
Thu 05:47:03 PM 41.2292 -85.3489 300° West 362 417 24,800 -1,104 Descending Chicago Center
Thu 05:48:05 PM 41.2889 -85.4825 301° West 353 406 23,600 -1,065 Descending Chicago Center
Thu 05:49:07 PM 41.3361 -85.5928 300° West 344 396 22,600 -871 Descending Chicago Center
Thu 05:50:09 PM 41.3847 -85.7033 300° West 343 395 21,800 -1,258 Descending Chicago Center
Thu 05:51:11 PM 41.4303 -85.8100 300° West 332 382 20,000 -1,694 Descending Chicago Center
Thu 05:52:13 PM 41.4744 -85.9136 300° West 325 374 18,300 -1,597 Descending Chicago Center
Thu 05:53:15 PM 41.5172 -86.0147 299° West 316 364 16,700 -1,645 Descending Chicago Center
Thu 05:54:17 PM 41.5239 -86.1297 274° West 314 361 14,900 -1,935 Descending Chicago Center
Thu 05:55:19 PM 41.5239 -86.2722 270° West 319 367 12,700 -1,839 Descending Chicago Center
Thu 05:56:21 PM 41.5228 -86.3894 269° West 316 364 11,100 -823 Descending Chicago Center
Thu 05:57:23 PM 41.5225 -86.5022 270° West 306 352 11,000 -528 Descending Chicago Center
Thu 05:58:26 PM 41.5203 -86.6117 268° West 298 343 10,000 -432 Descending Chicago Center
Thu 05:59:28 PM 41.5219 -86.7294 271° West 278 320 10,100  Climbing Chicago Center
Thu 06:00:30 PM 41.5192 -86.8411 268° West 296 341 10,000 -581 Descending Chicago Center
Thu 06:01:32 PM 41.5178 -86.9481 269° West 292 336 8,900 -1,258 Descending Chicago Center
Thu 06:02:34 PM 41.5164 -87.0528 269° West 284 327 7,400 -1,403 Descending Chicago Center
Thu 06:03:36 PM 41.5156 -87.1586 269° West 285 328 6,000 -677 Descending Chicago Center
Thu 06:04:38 PM 41.5150 -87.2819 270° West 279 321 6,000 -629 Level Chicago Center
Thu 06:05:40 PM 41.5242 -87.3831 277° West 277 319 4,700 -968 Descending Chicago Center
Thu 06:06:42 PM 41.5322 -87.4831 276° West 274 315 4,000 -339 Descending Chicago Center
Thu 06:07:44 PM 41.5392 -87.5811 275° West 271 312 4,000  Level Chicago Center
Thu 06:08:46 PM 41.5789 -87.6575 305° West 269 310 4,000  Level Chicago Center
Thu 06:09:49 PM 41.6303 -87.7328 312° West 246 283 4,000 -240 Level Chicago Center
Thu 06:10:51 PM 41.6697 -87.7858 315° West 224 258 3,500 -774 Descending Chicago Center
Thu 06:11:53 PM 41.7081 -87.8236 324° Northwest 199 229 2,400 -871 Descending Chicago Center
Thu 06:12:55 PM 41.7447 -87.8056 20° North 164 189 1,700 -629 Descending Chicago Center
Thu 06:13:57 PM 41.7717 -87.7717 43° Northeast 144 166 1,100 -581 Descending Chicago Center
Thu 06:15:00 PM 41.7833 -87.7500 340° North  Level FlightAware Approximate

Login

Don't have an account? Register now (free) for customized features, flight alerts, and more!